Time;durP1;ratioP1;P1;durP2;ratioP2;P2;SDS_P1;SDS_P2;PMS_P1;PMS_P2;Temp;Humidity;BMP_temperature;BMP_pressure;BME280_temperature;BME280_humidity;BME280_pressure;Samples;Min_cycle;Max_cycle;Signal;HPM_P1;HPM_P2
2023/06/05 00:01:35;;;;;;;5.22;4.00;;;;;;;;;;4993061;28;20525;-73
2023/06/05 00:04:01;;;;;;;6.28;4.22;;;;;;;;;;5007464;28;20050;-73
2023/06/05 00:06:26;;;;;;;5.18;3.58;;;;;;;;;;4992790;28;20053;-73
2023/06/05 00:08:52;;;;;;;7.10;4.25;;;;;;;;;;4993075;28;20072;-74
2023/06/05 00:11:17;;;;;;;6.85;4.55;;;;;;;;;;4992699;28;20572;-73
2023/06/05 00:13:42;;;;;;;6.20;4.15;;;;;;;;;;4992641;28;20046;-73
2023/06/05 00:16:08;;;;;;;7.22;3.92;;;;;;;;;;4991297;28;20125;-74
2023/06/05 00:18:33;;;;;;;6.85;3.95;;;;;;;;;;4992276;28;20599;-74
2023/06/05 00:20:58;;;;;;;10.23;4.18;;;;;;;;;;4992082;28;20105;-73
2023/06/05 00:23:24;;;;;;;5.45;4.07;;;;;;;;;;4992438;28;20027;-73
2023/06/05 00:25:49;;;;;;;7.50;3.75;;;;;;;;;;4987915;28;20088;-73
2023/06/05 00:28:15;;;;;;;5.22;4.05;;;;;;;;;;4989452;28;20034;-73
2023/06/05 00:30:40;;;;;;;5.72;4.10;;;;;;;;;;4977709;28;20113;-73
2023/06/05 00:33:05;;;;;;;7.57;4.57;;;;;;;;;;4989033;28;20308;-73
2023/06/05 00:35:31;;;;;;;6.65;4.55;;;;;;;;;;4989405;28;20026;-73
2023/06/05 00:37:56;;;;;;;7.15;4.15;;;;;;;;;;4992125;28;20054;-73
2023/06/05 00:40:22;;;;;;;5.53;4.50;;;;;;;;;;4992220;28;20030;-74
2023/06/05 00:42:47;;;;;;;8.68;4.88;;;;;;;;;;4992250;28;20896;-73
2023/06/05 00:45:13;;;;;;;9.15;4.38;;;;;;;;;;4989134;28;20452;-73
2023/06/05 00:47:38;;;;;;;6.25;4.50;;;;;;;;;;4988472;28;20559;-73
2023/06/05 00:50:07;;;;;;;5.18;4.25;;;;;;;;;;4992108;28;20038;-73
2023/06/05 00:52:33;;;;;;;7.03;4.32;;;;;;;;;;4991880;28;20030;-73
2023/06/05 00:54:58;;;;;;;6.35;4.57;;;;;;;;;;4988927;28;20030;-72
2023/06/05 00:57:26;;;;;;;6.95;5.03;;;;;;;;;;4991916;28;20050;-73
2023/06/05 00:59:53;;;;;;;8.02;5.07;;;;;;;;;;4992104;28;20058;-73
2023/06/05 01:02:18;;;;;;;5.88;4.50;;;;;;;;;;4991611;28;20029;-73
2023/06/05 01:04:43;;;;;;;11.10;4.65;;;;;;;;;;5005825;28;20034;-73
2023/06/05 01:07:14;;;;;;;7.25;4.22;;;;;;;;;;4991574;28;20077;-73
2023/06/05 01:09:40;;;;;;;6.57;4.53;;;;;;;;;;4991663;28;20117;-73
2023/06/05 01:12:08;;;;;;;11.70;4.88;;;;;;;;;;4985083;28;20593;-73
2023/06/05 01:14:36;;;;;;;6.50;4.40;;;;;;;;;;4982581;28;20125;-73
2023/06/05 01:17:03;;;;;;;10.25;4.53;;;;;;;;;;4991770;28;20080;-73
2023/06/05 01:19:31;;;;;;;8.07;4.43;;;;;;;;;;4991799;28;20037;-73
2023/06/05 01:22:00;;;;;;;10.48;4.63;;;;;;;;;;4992101;28;20030;-73
2023/06/05 01:24:27;;;;;;;7.72;4.95;;;;;;;;;;4991880;28;20483;-73
2023/06/05 01:27:00;;;;;;;7.35;4.93;;;;;;;;;;4992354;28;20030;-73
2023/06/05 01:29:43;;;;;;;6.47;4.40;;;;;;;;;;5006886;28;20046;-73
2023/06/05 01:32:18;;;;;;;5.43;4.22;;;;;;;;;;4991623;28;20124;-73
2023/06/05 01:34:48;;;;;;;11.00;4.68;;;;;;;;;;5007647;28;20496;-73
2023/06/05 01:37:18;;;;;;;7.72;4.43;;;;;;;;;;4992545;28;20567;-73
2023/06/05 01:39:45;;;;;;;7.15;4.82;;;;;;;;;;4992312;28;20038;-73
2023/06/05 01:42:12;;;;;;;7.40;4.90;;;;;;;;;;4992422;28;20101;-73
2023/06/05 01:44:38;;;;;;;7.03;4.65;;;;;;;;;;4992692;28;20495;-73
2023/06/05 01:47:04;;;;;;;5.85;4.45;;;;;;;;;;4992279;28;20030;-73
2023/06/05 01:49:30;;;;;;;5.95;4.82;;;;;;;;;;4992124;28;20108;-72
2023/06/05 01:51:55;;;;;;;4.93;4.18;;;;;;;;;;4992028;28;20035;-72
2023/06/05 01:54:23;;;;;;;6.25;4.50;;;;;;;;;;4992389;28;20451;-72
2023/06/05 01:56:50;;;;;;;7.82;4.72;;;;;;;;;;4992370;28;20101;-72
2023/06/05 01:59:15;;;;;;;5.68;4.40;;;;;;;;;;4991855;28;20039;-72
2023/06/05 02:01:43;;;;;;;6.20;4.40;;;;;;;;;;4992327;28;20038;-72
2023/06/05 02:04:09;;;;;;;6.78;4.93;;;;;;;;;;4991779;28;20408;-72
2023/06/05 02:06:41;;;;;;;6.82;4.63;;;;;;;;;;4991389;28;20034;-72
2023/06/05 02:09:08;;;;;;;6.50;4.80;;;;;;;;;;4991718;28;20037;-72
2023/06/05 02:11:34;;;;;;;6.43;5.35;;;;;;;;;;4990251;28;20401;-72
2023/06/05 02:13:59;;;;;;;8.30;5.28;;;;;;;;;;4991055;28;20088;-72
2023/06/05 02:16:25;;;;;;;6.13;4.75;;;;;;;;;;4991506;28;20034;-72
2023/06/05 02:18:50;;;;;;;11.05;5.00;;;;;;;;;;4991102;28;20551;-74
2023/06/05 02:21:16;;;;;;;9.25;5.60;;;;;;;;;;4991284;28;20049;-72
2023/06/05 02:23:43;;;;;;;10.35;6.10;;;;;;;;;;4991649;28;20397;-72
2023/06/05 02:26:09;;;;;;;11.23;5.68;;;;;;;;;;4991342;28;20088;-72
2023/06/05 02:28:34;;;;;;;10.00;6.45;;;;;;;;;;5005944;28;20034;-72
2023/06/05 02:31:01;;;;;;;8.40;5.85;;;;;;;;;;4991055;28;20042;-72
2023/06/05 02:33:27;;;;;;;8.45;4.97;;;;;;;;;;4990806;28;20493;-72
2023/06/05 02:35:53;;;;;;;7.30;4.47;;;;;;;;;;4991433;28;20022;-73
2023/06/05 02:38:18;;;;;;;5.93;4.70;;;;;;;;;;5005796;28;20166;-72
2023/06/05 02:40:44;;;;;;;7.82;4.45;;;;;;;;;;4990676;28;20599;-72
2023/06/05 02:43:11;;;;;;;8.80;4.88;;;;;;;;;;4991104;28;20481;-75
2023/06/05 02:45:36;;;;;;;7.45;5.07;;;;;;;;;;4994757;28;20237;-74
2023/06/05 02:48:02;;;;;;;6.97;4.50;;;;;;;;;;4994854;28;20023;-72
2023/06/05 02:50:27;;;;;;;7.13;5.10;;;;;;;;;;4994095;28;20046;-72
2023/06/05 02:52:53;;;;;;;6.15;4.68;;;;;;;;;;4994446;28;20401;-73
2023/06/05 02:55:18;;;;;;;9.50;5.18;;;;;;;;;;4994336;28;20030;-72
2023/06/05 02:57:44;;;;;;;6.72;4.65;;;;;;;;;;4992238;28;20093;-72
2023/06/05 03:00:16;;;;;;;7.03;5.30;;;;;;;;;;4994061;28;20030;-73
2023/06/05 03:02:48;;;;;;;6.82;4.97;;;;;;;;;;4986304;28;20070;-73
2023/06/05 03:05:14;;;;;;;8.75;4.60;;;;;;;;;;4991610;28;20038;-73
2023/06/05 03:07:40;;;;;;;7.82;5.20;;;;;;;;;;4993948;28;20033;-72
2023/06/05 03:10:06;;;;;;;7.47;5.28;;;;;;;;;;4994000;28;20046;-73
2023/06/05 03:12:32;;;;;;;7.18;5.32;;;;;;;;;;4992566;28;20039;-73
2023/06/05 03:14:57;;;;;;;10.50;5.68;;;;;;;;;;4994233;28;20048;-72
2023/06/05 03:17:23;;;;;;;6.65;5.03;;;;;;;;;;4993916;28;20035;-72
2023/06/05 03:19:48;;;;;;;10.20;5.80;;;;;;;;;;4993451;28;20035;-72
2023/06/05 03:22:14;;;;;;;7.32;5.95;;;;;;;;;;4986827;28;20124;-75
2023/06/05 03:24:39;;;;;;;14.35;6.07;;;;;;;;;;4989517;28;20037;-72
2023/06/05 03:27:04;;;;;;;11.43;7.03;;;;;;;;;;4989811;28;20539;-72
2023/06/05 03:29:30;;;;;;;12.68;6.88;;;;;;;;;;4993884;28;20034;-72
2023/06/05 03:31:55;;;;;;;9.93;6.90;;;;;;;;;;4993460;28;20034;-73
2023/06/05 03:34:25;;;;;;;11.63;6.80;;;;;;;;;;4992233;28;20061;-73
2023/06/05 03:36:51;;;;;;;8.68;6.38;;;;;;;;;;4993526;28;20034;-73
2023/06/05 03:39:16;;;;;;;9.82;5.57;;;;;;;;;;4986169;28;20361;-73
2023/06/05 03:41:41;;;;;;;9.23;5.80;;;;;;;;;;5001938;28;20018;-73
2023/06/05 03:44:08;;;;;;;11.63;6.05;;;;;;;;;;4992962;28;20109;-74
2023/06/05 03:46:34;;;;;;;11.77;6.57;;;;;;;;;;4993434;28;20048;-74
2023/06/05 03:49:01;;;;;;;10.88;6.47;;;;;;;;;;4990041;28;20556;-74
2023/06/05 03:51:29;;;;;;;10.52;6.85;;;;;;;;;;4995021;28;20497;-74
2023/06/05 03:53:58;;;;;;;11.65;6.47;;;;;;;;;;4995729;28;20441;-72
2023/06/05 03:56:39;;;;;;;9.88;6.22;;;;;;;;;;4998773;28;20039;-71
2023/06/05 03:59:11;;;;;;;9.85;7.07;;;;;;;;;;4997011;28;20504;-72
2023/06/05 04:01:37;;;;;;;14.10;7.18;;;;;;;;;;4996322;28;20034;-72
2023/06/05 04:04:05;;;;;;;9.00;6.95;;;;;;;;;;4992967;28;20035;-75
2023/06/05 04:06:32;;;;;;;17.83;7.03;;;;;;;;;;4985649;28;20089;-72
2023/06/05 04:08:58;;;;;;;10.55;6.65;;;;;;;;;;4993419;28;20033;-72
2023/06/05 04:11:26;;;;;;;11.00;6.90;;;;;;;;;;4993185;28;20038;-72
2023/06/05 04:13:52;;;;;;;9.73;7.50;;;;;;;;;;4986282;28;20101;-72
2023/06/05 04:16:17;;;;;;;10.27;7.78;;;;;;;;;;4993045;28;20072;-72
2023/06/05 04:18:43;;;;;;;10.57;7.25;;;;;;;;;;4992397;28;20473;-72
2023/06/05 04:21:08;;;;;;;11.05;7.00;;;;;;;;;;4981913;28;20102;-72
2023/06/05 04:23:33;;;;;;;7.90;6.05;;;;;;;;;;4984029;28;20389;-73
2023/06/05 04:25:58;;;;;;;8.63;6.55;;;;;;;;;;4980790;28;20077;-73
2023/06/05 04:28:25;;;;;;;12.52;6.13;;;;;;;;;;4991589;28;20031;-73
2023/06/05 04:30:50;;;;;;;10.07;6.07;;;;;;;;;;4984763;28;20553;-73
2023/06/05 04:33:16;;;;;;;11.77;6.05;;;;;;;;;;4989976;28;20121;-72
2023/06/05 04:35:41;;;;;;;13.13;5.90;;;;;;;;;;4992758;28;20402;-73
2023/06/05 04:38:06;;;;;;;22.75;7.85;;;;;;;;;;4989204;28;20118;-73
2023/06/05 04:40:32;;;;;;;18.83;7.05;;;;;;;;;;4975900;28;20042;-72
2023/06/05 04:42:58;;;;;;;10.75;7.25;;;;;;;;;;4980600;28;20145;-72
2023/06/05 04:45:24;;;;;;;23.10;7.30;;;;;;;;;;4991434;28;20065;-72
2023/06/05 04:47:49;;;;;;;11.40;7.05;;;;;;;;;;4982484;28;20049;-72
2023/06/05 04:50:26;;;;;;;27.77;7.43;;;;;;;;;;4972183;28;20117;-73
2023/06/05 04:52:55;;;;;;;15.48;5.25;;;;;;;;;;4983948;28;20113;-73
2023/06/05 04:55:20;;;;;;;12.50;5.80;;;;;;;;;;4985237;28;20118;-72
2023/06/05 04:57:48;;;;;;;13.60;5.53;;;;;;;;;;4981914;28;20177;-73
2023/06/05 05:00:14;;;;;;;8.57;5.30;;;;;;;;;;4991294;28;20392;-73
2023/06/05 05:02:40;;;;;;;12.32;5.22;;;;;;;;;;4992641;28;20471;-72
2023/06/05 05:05:05;;;;;;;6.75;4.70;;;;;;;;;;4992648;28;20036;-73
2023/06/05 05:07:31;;;;;;;7.43;5.45;;;;;;;;;;4984111;28;20393;-73
2023/06/05 05:09:56;;;;;;;6.10;4.68;;;;;;;;;;4992188;28;20061;-73
2023/06/05 05:12:21;;;;;;;10.68;5.57;;;;;;;;;;4992025;28;20045;-73
2023/06/05 05:14:47;;;;;;;7.93;5.18;;;;;;;;;;4992474;28;20033;-72
2023/06/05 05:17:15;;;;;;;13.70;4.90;;;;;;;;;;4991210;28;20054;-73
2023/06/05 05:19:40;;;;;;;7.00;5.03;;;;;;;;;;4992085;28;20038;-73
2023/06/05 05:22:06;;;;;;;7.68;5.35;;;;;;;;;;4993247;28;20030;-74
2023/06/05 05:24:32;;;;;;;9.50;5.80;;;;;;;;;;5014508;23;20057;-75
2023/06/05 05:26:57;;;;;;;8.18;5.35;;;;;;;;;;4987947;28;20105;-76
2023/06/05 05:29:22;;;;;;;14.10;5.82;;;;;;;;;;4987807;28;20564;-75
2023/06/05 05:31:48;;;;;;;7.38;5.80;;;;;;;;;;4986095;28;21722;-75
2023/06/05 05:34:13;;;;;;;7.88;6.05;;;;;;;;;;4987569;28;20049;-77
2023/06/05 05:36:38;;;;;;;7.85;5.60;;;;;;;;;;4974855;28;20448;-76
2023/06/05 05:39:04;;;;;;;10.50;5.70;;;;;;;;;;4987011;28;20023;-76
2023/06/05 05:41:30;;;;;;;17.35;6.18;;;;;;;;;;4970757;28;20081;-76
2023/06/05 05:43:55;;;;;;;11.13;5.70;;;;;;;;;;4967422;28;20031;-76
2023/06/05 05:46:21;;;;;;;11.27;6.53;;;;;;;;;;4969661;28;20027;-76
2023/06/05 05:48:46;;;;;;;14.55;6.63;;;;;;;;;;4976746;28;20038;-76
2023/06/05 05:51:11;;;;;;;12.20;6.40;;;;;;;;;;4984855;28;20026;-76
2023/06/05 05:53:37;;;;;;;20.42;6.18;;;;;;;;;;4970575;28;20031;-76
2023/06/05 05:56:03;;;;;;;9.23;5.30;;;;;;;;;;4956277;28;20051;-76
2023/06/05 05:58:29;;;;;;;7.13;5.38;;;;;;;;;;4948241;28;20046;-76
2023/06/05 06:00:54;;;;;;;7.78;5.55;;;;;;;;;;4953894;28;20122;-76
2023/06/05 06:03:20;;;;;;;10.55;6.32;;;;;;;;;;4950814;28;20034;-77
2023/06/05 06:05:46;;;;;;;16.40;6.20;;;;;;;;;;4950645;28;20027;-76
2023/06/05 06:08:11;;;;;;;10.57;5.80;;;;;;;;;;4948491;28;20050;-77
2023/06/05 06:10:37;;;;;;;8.02;6.10;;;;;;;;;;4962601;28;20516;-76
2023/06/05 06:13:04;;;;;;;9.32;5.88;;;;;;;;;;4955058;28;20078;-76
2023/06/05 06:15:30;;;;;;;13.05;5.90;;;;;;;;;;4955088;28;20070;-76
2023/06/05 06:17:56;;;;;;;7.25;5.65;;;;;;;;;;4985296;28;20077;-76
2023/06/05 06:20:22;;;;;;;7.43;5.60;;;;;;;;;;4972274;28;20117;-76
2023/06/05 06:22:47;;;;;;;7.13;5.78;;;;;;;;;;4972862;28;20114;-76
2023/06/05 06:25:15;;;;;;;10.40;6.63;;;;;;;;;;4971615;28;20045;-77
2023/06/05 06:27:42;;;;;;;6.55;5.57;;;;;;;;;;4971625;28;20086;-77
2023/06/05 06:30:07;;;;;;;9.07;5.72;;;;;;;;;;4972088;28;20038;-76
2023/06/05 06:32:33;;;;;;;9.05;5.88;;;;;;;;;;4972214;28;20022;-77
2023/06/05 06:34:59;;;;;;;11.35;6.13;;;;;;;;;;4971935;28;20505;-77
2023/06/05 06:37:24;;;;;;;9.25;5.97;;;;;;;;;;4975587;28;20113;-77
2023/06/05 06:39:50;;;;;;;10.20;6.25;;;;;;;;;;4968447;28;20471;-76
2023/06/05 06:42:15;;;;;;;9.05;5.70;;;;;;;;;;4965079;28;20120;-77
2023/06/05 06:44:41;;;;;;;7.28;5.65;;;;;;;;;;4951841;28;20034;-76
2023/06/05 06:47:07;;;;;;;7.68;5.18;;;;;;;;;;4957324;28;20036;-76
2023/06/05 06:49:34;;;;;;;5.78;5.22;;;;;;;;;;4952399;28;20039;-76
2023/06/05 06:51:59;;;;;;;8.18;5.88;;;;;;;;;;4949122;28;20127;-76
2023/06/05 06:54:28;;;;;;;7.45;5.90;;;;;;;;;;4982402;28;20194;-77
2023/06/05 06:56:54;;;;;;;10.43;5.88;;;;;;;;;;4949702;28;20058;-77
2023/06/05 06:59:20;;;;;;;7.00;5.82;;;;;;;;;;4950925;28;20098;-76
2023/06/05 07:01:46;;;;;;;7.13;4.72;;;;;;;;;;4963861;28;20035;-75
2023/06/05 07:04:20;;;;;;;7.10;5.45;;;;;;;;;;4982209;28;20047;-76
2023/06/05 07:06:46;;;;;;;7.72;5.53;;;;;;;;;;4965999;28;20035;-76
2023/06/05 07:09:12;;;;;;;7.53;6.15;;;;;;;;;;4964404;28;20517;-76
2023/06/05 07:11:37;;;;;;;7.43;5.22;;;;;;;;;;4956912;28;20118;-76
2023/06/05 07:14:03;;;;;;;9.77;5.43;;;;;;;;;;4967601;28;20070;-77
2023/06/05 07:16:28;;;;;;;6.82;5.20;;;;;;;;;;4967942;28;20039;-77
2023/06/05 07:18:55;;;;;;;8.10;5.40;;;;;;;;;;4967224;28;20042;-77
2023/06/05 07:21:21;;;;;;;9.75;5.85;;;;;;;;;;4967324;28;20045;-77
2023/06/05 07:23:51;;;;;;;6.75;5.40;;;;;;;;;;4970101;28;20027;-76
2023/06/05 07:26:20;;;;;;;7.97;6.53;;;;;;;;;;4977008;28;20042;-76
2023/06/05 07:28:46;;;;;;;7.63;5.40;;;;;;;;;;4977315;28;20031;-76
2023/06/05 07:31:13;;;;;;;6.75;5.05;;;;;;;;;;4976222;28;20037;-77
2023/06/05 07:33:38;;;;;;;9.18;5.32;;;;;;;;;;4969616;28;20043;-76
2023/06/05 07:36:03;;;;;;;7.07;5.47;;;;;;;;;;4966602;28;20035;-76
2023/06/05 07:38:30;;;;;;;6.55;5.32;;;;;;;;;;4967870;28;20034;-77
2023/06/05 07:40:58;;;;;;;7.13;5.78;;;;;;;;;;4975005;28;20217;-76
2023/06/05 07:43:24;;;;;;;8.57;5.78;;;;;;;;;;4973300;28;20630;-76
2023/06/05 07:45:49;;;;;;;8.48;6.03;;;;;;;;;;4977868;28;20404;-76
2023/06/05 07:48:15;;;;;;;6.50;5.43;;;;;;;;;;4968490;28;20027;-76
2023/06/05 07:50:40;;;;;;;6.95;6.10;;;;;;;;;;4969285;28;20030;-76
2023/06/05 07:53:05;;;;;;;6.60;5.95;;;;;;;;;;4977280;28;20089;-76
2023/06/05 07:55:31;;;;;;;8.38;5.97;;;;;;;;;;4968449;28;20042;-76
2023/06/05 07:57:56;;;;;;;6.22;5.63;;;;;;;;;;4971476;28;20406;-76
2023/06/05 08:00:23;;;;;;;9.43;6.28;;;;;;;;;;4964676;28;20476;-77
2023/06/05 08:02:48;;;;;;;10.13;6.45;;;;;;;;;;4968316;28;20116;-75
2023/06/05 08:05:16;;;;;;;7.50;6.13;;;;;;;;;;4977451;28;20035;-76
2023/06/05 08:07:41;;;;;;;9.40;6.05;;;;;;;;;;4984433;28;20035;-76
2023/06/05 08:10:08;;;;;;;8.18;6.63;;;;;;;;;;4965155;28;20044;-78
2023/06/05 08:12:33;;;;;;;14.75;6.20;;;;;;;;;;4973624;28;20509;-76
2023/06/05 08:14:58;;;;;;;8.77;6.10;;;;;;;;;;4974817;28;20031;-76
2023/06/05 08:17:24;;;;;;;8.32;6.47;;;;;;;;;;4969324;28;20039;-76
2023/06/05 08:19:49;;;;;;;13.07;6.03;;;;;;;;;;4966520;28;20038;-76
2023/06/05 08:22:15;;;;;;;8.52;5.78;;;;;;;;;;4972552;28;20027;-78
2023/06/05 08:24:40;;;;;;;12.55;5.93;;;;;;;;;;4992081;28;20034;-77
2023/06/05 08:27:06;;;;;;;6.90;5.70;;;;;;;;;;4976736;28;20069;-77
2023/06/05 08:29:35;;;;;;;7.25;6.30;;;;;;;;;;4977084;28;20038;-80
2023/06/05 08:32:01;;;;;;;7.50;6.75;;;;;;;;;;4981459;28;20038;-78
2023/06/05 08:34:27;;;;;;;7.15;5.55;;;;;;;;;;4969946;28;20065;-77
2023/06/05 08:36:52;;;;;;;7.60;5.95;;;;;;;;;;4981411;28;20484;-77
2023/06/05 08:39:17;;;;;;;8.50;6.60;;;;;;;;;;4978544;28;20125;-78
2023/06/05 08:41:43;;;;;;;8.65;6.68;;;;;;;;;;4980081;28;20443;-78
2023/06/05 08:44:11;;;;;;;8.40;6.07;;;;;;;;;;4955082;28;20086;-79
2023/06/05 08:46:40;;;;;;;8.15;5.85;;;;;;;;;;4964979;28;20050;-78
2023/06/05 08:49:10;;;;;;;11.68;6.18;;;;;;;;;;4963928;28;20035;-78
2023/06/05 08:51:37;;;;;;;8.70;6.20;;;;;;;;;;4960313;28;20039;-78
2023/06/05 08:54:04;;;;;;;8.55;5.63;;;;;;;;;;4952401;28;20034;-78
2023/06/05 08:56:31;;;;;;;6.03;5.13;;;;;;;;;;4971582;28;20429;-78
2023/06/05 08:58:57;;;;;;;8.38;6.10;;;;;;;;;;4973000;28;20086;-78
2023/06/05 09:01:22;;;;;;;8.40;6.28;;;;;;;;;;4968171;28;20521;-78
2023/06/05 09:03:48;;;;;;;7.45;5.75;;;;;;;;;;4971797;28;20034;-78
2023/06/05 09:06:13;;;;;;;8.25;5.40;;;;;;;;;;4973620;28;20018;-80
2023/06/05 09:08:39;;;;;;;7.85;6.53;;;;;;;;;;4969886;28;20049;-77
2023/06/05 09:11:23;;;;;;;12.80;6.20;;;;;;;;;;4982928;28;20078;-77
2023/06/05 09:13:49;;;;;;;10.02;5.85;;;;;;;;;;4966248;28;20046;-78
2023/06/05 09:16:18;;;;;;;6.65;5.18;;;;;;;;;;4977267;28;20045;-78
2023/06/05 09:18:57;;;;;;;8.18;5.60;;;;;;;;;;4980828;28;20113;-78
2023/06/05 09:21:28;;;;;;;5.85;4.82;;;;;;;;;;4982486;28;20113;-78
2023/06/05 09:24:11;;;;;;;5.80;5.20;;;;;;;;;;4982992;28;20066;-78
2023/06/05 09:27:06;;;;;;;8.40;5.30;;;;;;;;;;4986346;28;20039;-79
2023/06/05 09:29:35;;;;;;;;;;;;;;;;;;4973994;28;20097;-79
2023/06/05 09:32:08;;;;;;;8.07;5.10;;;;;;;;;;4979051;28;19918;-78
2023/06/05 09:34:35;;;;;;;6.68;5.57;;;;;;;;;;4972072;28;20046;-78
2023/06/05 09:37:02;;;;;;;5.03;4.53;;;;;;;;;;4983198;28;20563;-79
2023/06/05 09:39:29;;;;;;;7.07;4.80;;;;;;;;;;4986101;28;20046;-79
2023/06/05 09:41:56;;;;;;;5.25;4.75;;;;;;;;;;4977031;28;20098;-79
2023/06/05 09:44:23;;;;;;;6.63;4.50;;;;;;;;;;4974129;28;20121;-79
2023/06/05 09:47:00;;;;;;;8.18;4.85;;;;;;;;;;4962342;28;20031;-79
2023/06/05 09:49:46;;;;;;;7.78;4.75;;;;;;;;;;4956472;28;20047;-79
2023/06/05 09:52:13;;;;;;;9.45;4.55;;;;;;;;;;4960170;28;20038;-79
2023/06/05 09:54:47;;;;;;;12.10;5.70;;;;;;;;;;4970555;28;20044;-78
2023/06/05 09:57:14;;;;;;;6.68;5.05;;;;;;;;;;4967240;28;20556;-79
2023/06/05 09:59:51;;;;;;;7.60;5.20;;;;;;;;;;4967149;28;20033;-79
2023/06/05 10:02:17;;;;;;;5.88;4.82;;;;;;;;;;4970641;28;20034;-79
2023/06/05 10:04:49;;;;;;;9.10;4.50;;;;;;;;;;4977043;28;20520;-79
2023/06/05 10:07:15;;;;;;;6.18;4.40;;;;;;;;;;4983052;28;20091;-79
2023/06/05 10:09:41;;;;;;;6.90;5.07;;;;;;;;;;4987997;28;20147;-78
2023/06/05 10:12:08;;;;;;;7.45;4.68;;;;;;;;;;4971957;28;20596;-78
2023/06/05 10:14:41;;;;;;;9.52;4.60;;;;;;;;;;4974764;28;20027;-78
2023/06/05 10:17:07;;;;;;;5.07;4.43;;;;;;;;;;4980099;28;20039;-79
2023/06/05 10:19:32;;;;;;;11.90;4.85;;;;;;;;;;4986476;28;20045;-79
2023/06/05 10:21:58;;;;;;;7.07;4.75;;;;;;;;;;4966965;28;20094;-78
2023/06/05 10:24:29;;;;;;;6.47;4.75;;;;;;;;;;4972980;28;20058;-79
2023/06/05 10:27:16;;;;;;;8.50;5.25;;;;;;;;;;4972351;28;20412;-78
2023/06/05 10:30:03;;;;;;;6.88;5.13;;;;;;;;;;4987765;28;20035;-78
2023/06/05 10:32:28;;;;;;;6.32;4.20;;;;;;;;;;4973052;28;20141;-78
2023/06/05 10:35:25;;;;;;;7.10;4.90;;;;;;;;;;4965717;28;20066;-79
2023/06/05 10:38:16;;;;;;;5.57;4.60;;;;;;;;;;4975404;28;20038;-79
2023/06/05 10:40:41;;;;;;;17.92;5.00;;;;;;;;;;4966206;28;20031;-78
2023/06/05 10:43:28;;;;;;;9.40;5.28;;;;;;;;;;4971987;28;20062;-78
2023/06/05 10:45:54;;;;;;;13.73;4.50;;;;;;;;;;4996269;28;20074;-78
2023/06/05 10:48:20;;;;;;;6.85;4.50;;;;;;;;;;4963858;28;20191;-79
2023/06/05 10:50:46;;;;;;;7.40;4.63;;;;;;;;;;4968636;28;20230;-78
2023/06/05 10:53:43;;;;;;;16.73;4.78;;;;;;;;;;4972339;28;20173;-78
2023/06/05 10:56:08;;;;;;;7.55;4.90;;;;;;;;;;4969440;28;20070;-79
2023/06/05 10:58:33;;;;;;;10.02;5.45;;;;;;;;;;4972886;28;20035;-79
2023/06/05 11:01:20;;;;;;;8.40;4.43;;;;;;;;;;4960642;28;20034;-79
2023/06/05 11:03:58;;;;;;;11.27;4.80;;;;;;;;;;4976974;28;20041;-78
2023/06/05 11:06:24;;;;;;;4.68;3.92;;;;;;;;;;4970498;28;20035;-78
2023/06/05 11:09:12;;;;;;;8.70;4.88;;;;;;;;;;4967989;28;20106;-78
2023/06/05 11:12:02;;;;;;;7.63;4.80;;;;;;;;;;4969218;28;20069;-77
2023/06/05 11:14:47;;;;;;;10.05;4.30;;;;;;;;;;4972902;28;20474;-78
2023/06/05 11:17:32;;;;;;;6.53;5.28;;;;;;;;;;4973568;28;20173;-79
2023/06/05 11:19:58;;;;;;;6.43;5.70;;;;;;;;;;4968444;28;20104;-79
2023/06/05 11:22:23;;;;;;;11.45;5.00;;;;;;;;;;4975268;28;20121;-78
2023/06/05 11:25:16;;;;;;;5.43;4.28;;;;;;;;;;4969018;28;20047;-79
2023/06/05 11:27:47;;;;;;;9.88;4.32;;;;;;;;;;4970431;28;21006;-80
2023/06/05 11:30:13;;;;;;;7.32;4.80;;;;;;;;;;4974708;28;20046;-81
2023/06/05 11:32:39;;;;;;;8.20;4.97;;;;;;;;;;4974593;28;20030;-81
2023/06/05 11:35:05;;;;;;;13.88;4.63;;;;;;;;;;4976368;28;20090;-81
2023/06/05 11:37:34;;;;;;;6.75;4.70;;;;;;;;;;4972504;28;20039;-81
2023/06/05 11:40:09;;;;;;;8.90;5.13;;;;;;;;;;4973748;28;20055;-81
2023/06/05 11:42:35;;;;;;;6.28;4.90;;;;;;;;;;4973480;28;20082;-81
2023/06/05 11:45:01;;;;;;;7.55;4.75;;;;;;;;;;4970760;28;20113;-82
2023/06/05 11:47:29;;;;;;;8.05;5.18;;;;;;;;;;4973128;28;20081;-81
2023/06/05 11:50:10;;;;;;;6.32;4.05;;;;;;;;;;4970757;28;20097;-81
2023/06/05 11:52:36;;;;;;;6.53;4.90;;;;;;;;;;4985522;28;20046;-81
2023/06/05 11:55:22;;;;;;;8.48;4.13;;;;;;;;;;4973987;28;20520;-81
2023/06/05 11:57:49;;;;;;;5.88;4.28;;;;;;;;;;4965512;28;20043;-81
2023/06/05 12:00:16;;;;;;;10.23;4.30;;;;;;;;;;4975597;28;20029;-81
2023/06/05 12:02:42;;;;;;;6.47;3.72;;;;;;;;;;4976262;28;20049;-81
2023/06/05 12:05:08;;;;;;;5.25;4.72;;;;;;;;;;4972870;28;20139;-81
2023/06/05 12:07:37;;;;;;;5.07;4.40;;;;;;;;;;4996029;28;20038;-81
2023/06/05 12:10:07;;;;;;;9.25;4.53;;;;;;;;;;4966108;28;20039;-81
2023/06/05 12:12:52;;;;;;;5.85;4.05;;;;;;;;;;4973373;28;20066;-80
2023/06/05 12:15:18;;;;;;;;;;;;;;;;;;4997991;28;20192;-81
2023/06/05 12:17:56;;;;;;;6.90;4.25;;;;;;;;;;4984615;28;20002;-81
2023/06/05 12:20:23;;;;;;;5.25;4.20;;;;;;;;;;4969486;28;20160;-81
2023/06/05 12:22:48;;;;;;;6.68;4.40;;;;;;;;;;4977580;28;20051;-81
2023/06/05 12:25:18;;;;;;;6.50;4.20;;;;;;;;;;4976014;28;20606;-82
2023/06/05 12:27:45;;;;;;;7.82;4.82;;;;;;;;;;4988320;28;20041;-80
2023/06/05 12:30:11;;;;;;;3.75;3.45;;;;;;;;;;4963860;28;20055;-81
2023/06/05 12:32:38;;;;;;;5.40;4.20;;;;;;;;;;4974325;28;20466;-80
2023/06/05 12:35:04;;;;;;;5.65;3.70;;;;;;;;;;4974445;28;20386;-80
2023/06/05 12:37:33;;;;;;;5.63;3.60;;;;;;;;;;4983228;28;20042;-80
2023/06/05 12:39:58;;;;;;;5.10;3.92;;;;;;;;;;4968154;28;20034;-81
2023/06/05 12:42:24;;;;;;;7.80;4.18;;;;;;;;;;4977329;28;20031;-81
2023/06/05 12:44:50;;;;;;;6.72;4.05;;;;;;;;;;4957879;28;20054;-79
2023/06/05 12:47:15;;;;;;;10.48;4.13;;;;;;;;;;4956987;28;20054;-80
2023/06/05 12:49:41;;;;;;;4.75;3.75;;;;;;;;;;4967830;28;20044;-81
2023/06/05 12:52:08;;;;;;;6.78;3.70;;;;;;;;;;4960793;28;20190;-80
2023/06/05 12:54:36;;;;;;;6.82;3.75;;;;;;;;;;4955468;28;20058;-81
2023/06/05 12:57:01;;;;;;;3.90;3.47;;;;;;;;;;4957156;28;20065;-81
2023/06/05 12:59:26;;;;;;;6.88;4.18;;;;;;;;;;4979872;28;20047;-80
2023/06/05 13:01:52;;;;;;;6.65;3.80;;;;;;;;;;4993753;28;20054;-80
2023/06/05 13:04:17;;;;;;;5.50;4.07;;;;;;;;;;4973444;28;20039;-81
2023/06/05 13:06:43;;;;;;;5.57;3.85;;;;;;;;;;4969135;28;20035;-81
2023/06/05 13:09:09;;;;;;;12.10;4.00;;;;;;;;;;4971292;28;20043;-79
2023/06/05 13:11:34;;;;;;;4.95;3.95;;;;;;;;;;4982659;28;20054;-79
2023/06/05 13:14:00;;;;;;;6.18;3.60;;;;;;;;;;4967209;28;20050;-79
2023/06/05 13:16:26;;;;;;;5.03;4.45;;;;;;;;;;4969456;28;20046;-79
2023/06/05 13:18:51;;;;;;;4.60;4.15;;;;;;;;;;4973589;28;20031;-79
2023/06/05 13:21:17;;;;;;;5.28;4.15;;;;;;;;;;4957802;28;20474;-80
2023/06/05 13:23:42;;;;;;;4.43;3.85;;;;;;;;;;4959935;28;20022;-80
2023/06/05 13:26:08;;;;;;;4.82;3.88;;;;;;;;;;4970313;28;20042;-80
2023/06/05 13:28:33;;;;;;;5.25;4.28;;;;;;;;;;4974171;28;20481;-79
2023/06/05 13:30:58;;;;;;;7.57;3.97;;;;;;;;;;4967162;28;20039;-80
2023/06/05 13:33:27;;;;;;;8.48;4.43;;;;;;;;;;4970336;28;20046;-80
2023/06/05 13:35:53;;;;;;;7.32;5.15;;;;;;;;;;4988202;28;20023;-80
2023/06/05 13:38:20;;;;;;;7.90;5.07;;;;;;;;;;4981221;28;20065;-80
2023/06/05 13:40:48;;;;;;;7.80;5.55;;;;;;;;;;4971293;28;20039;-80
2023/06/05 13:43:14;;;;;;;11.02;5.35;;;;;;;;;;4970166;28;20049;-80
2023/06/05 13:45:40;;;;;;;6.32;5.10;;;;;;;;;;4971537;28;20046;-80
2023/06/05 13:48:05;;;;;;;6.03;5.28;;;;;;;;;;4968427;28;20023;-80
2023/06/05 13:50:30;;;;;;;13.45;5.40;;;;;;;;;;4987354;28;20109;-79
2023/06/05 13:52:56;;;;;;;10.48;5.32;;;;;;;;;;4971712;28;20394;-80
2023/06/05 13:55:21;;;;;;;16.65;6.00;;;;;;;;;;4981014;28;20062;-80
2023/06/05 13:57:47;;;;;;;5.78;5.20;;;;;;;;;;4983635;28;20069;-80
2023/06/05 14:00:14;;;;;;;9.73;5.53;;;;;;;;;;4972327;28;20030;-80
2023/06/05 14:02:40;;;;;;;7.32;5.72;;;;;;;;;;4982405;28;20033;-80
2023/06/05 14:05:07;;;;;;;6.57;5.90;;;;;;;;;;4982741;28;20060;-80
2023/06/05 14:07:35;;;;;;;10.50;5.30;;;;;;;;;;4978191;28;20035;-80
2023/06/05 14:10:01;;;;;;;6.40;5.40;;;;;;;;;;4979357;28;20045;-79
2023/06/05 14:12:26;;;;;;;6.25;5.00;;;;;;;;;;4973596;28;20096;-79
2023/06/05 14:14:51;;;;;;;10.20;4.93;;;;;;;;;;4978992;28;20509;-80
2023/06/05 14:17:17;;;;;;;17.38;6.20;;;;;;;;;;4981745;28;20118;-80
2023/06/05 14:19:42;;;;;;;5.72;5.13;;;;;;;;;;4968937;28;20061;-79
2023/06/05 14:22:08;;;;;;;7.03;5.00;;;;;;;;;;4975237;28;20138;-80
2023/06/05 14:24:34;;;;;;;6.80;4.88;;;;;;;;;;4982405;28;20093;-80
2023/06/05 14:26:59;;;;;;;7.65;5.25;;;;;;;;;;4970768;28;20433;-77
2023/06/05 14:29:24;;;;;;;7.03;4.60;;;;;;;;;;4973526;28;20506;-80
2023/06/05 14:31:50;;;;;;;6.63;5.28;;;;;;;;;;4988756;28;20026;-79
2023/06/05 14:34:15;;;;;;;7.65;4.95;;;;;;;;;;4974219;28;20058;-79
2023/06/05 14:36:41;;;;;;;9.00;5.40;;;;;;;;;;4969797;28;20061;-78
2023/06/05 14:39:07;;;;;;;5.18;4.68;;;;;;;;;;4980272;28;20158;-78
2023/06/05 14:41:32;;;;;;;16.85;5.53;;;;;;;;;;4977549;28;20541;-77
2023/06/05 14:43:58;;;;;;;6.28;5.00;;;;;;;;;;4987254;28;20134;-78